Hartford, Connecticut
Traffic Map
Current Weather Conditions
Hartford, Connecticut
Clear
Clear
49°
Feels Like: 45°
Wind Chill: 45° Ceiling: Unl
Heat Index: 49° Visibility: 10mi
Dew Point: 47° Wind: 8mph
Humidity: 93% Direction: 150° (SSE)
Pressure: 29.96in Gusts: 0mph
Raw Report DataKHFD 180653Z AUTO 15007KT 10SM CLR 09/08 A2996 RMK AO2 SLP146 T00940083
Traffic Incident Summary
Active as of:
Severity:
Category:
InformationThere was an issue retrieving the traffic information for this location. Please try a different location or try again shortly.
Advertisements
Track Severe Weather on mobile